Time;durP1;ratioP1;P1;durP2;ratioP2;P2;SDS_P1;SDS_P2;PMS_P1;PMS_P2;Temp;Humidity;BMP_temperature;BMP_pressure;BME280_temperature;BME280_humidity;BME280_pressure;Samples;Min_cycle;Max_cycle;Signal;HPM_P1;HPM_P2
2022/01/16 00:05:59;;;;;;;81.20;33.28;;;;;;;-1.59;85.11;101137.28;2083305;84;21030;-90
2022/01/16 00:09:01;;;;;;;82.85;34.03;;;;;;;-1.63;85.28;101157.40;2086924;84;21052;-91
2022/01/16 00:12:06;;;;;;;78.05;34.20;;;;;;;-1.62;85.35;101158.24;2080910;84;21043;-89
2022/01/16 00:15:08;;;;;;;77.62;35.23;;;;;;;-1.59;85.41;101142.50;2080443;84;21494;-91
2022/01/16 00:18:20;;;;;;;76.90;33.70;;;;;;;-1.61;85.29;101132.59;2082030;84;21598;-90
2022/01/16 00:21:14;;;;;;;70.37;33.53;;;;;;;-1.57;85.42;101141.14;2076963;84;21061;-91
2022/01/16 00:24:15;;;;;;;77.05;34.70;;;;;;;-1.54;85.30;101157.47;2078824;84;21052;-89
2022/01/16 00:27:16;;;;;;;85.32;36.58;;;;;;;-1.57;85.12;101148.95;2079985;84;21097;-91
2022/01/16 00:30:18;;;;;;;80.85;34.10;;;;;;;-1.59;85.08;101146.40;2085496;84;21512;-90
2022/01/16 00:33:20;;;;;;;81.63;35.10;;;;;;;-1.64;85.00;101130.12;2075895;84;21084;-90
2022/01/16 00:36:22;;;;;;;87.73;35.80;;;;;;;-1.72;84.84;101099.66;2053997;84;22063;-89
2022/01/16 00:39:24;;;;;;;76.12;34.73;;;;;;;-1.91;85.07;101070.53;2073289;85;21537;-90
2022/01/16 00:42:25;;;;;;;86.28;37.00;;;;;;;-1.86;84.77;101097.20;2074944;85;21072;-89
2022/01/16 00:45:34;;;;;;;76.20;36.08;;;;;;;-1.84;84.96;101090.16;2076271;84;21005;-90
2022/01/16 00:48:34;;;;;;;85.25;37.28;;;;;;;-1.86;84.93;101107.61;2081038;84;21476;-91
2022/01/16 00:51:35;;;;;;;84.67;34.45;;;;;;;-1.89;84.89;101126.38;2080426;84;21024;-91
2022/01/16 00:54:37;;;;;;;87.02;36.13;;;;;;;-1.85;84.87;101134.01;2079849;84;21664;-89
2022/01/16 00:57:38;;;;;;;75.10;33.45;;;;;;;-1.83;84.83;101130.03;2081281;84;21040;-90
2022/01/16 01:00:40;;;;;;;71.92;33.50;;;;;;;-1.82;84.70;101105.27;2075412;84;20971;-90
2022/01/16 01:03:41;;;;;;;81.22;35.60;;;;;;;-1.87;84.62;101102.45;2077119;84;21053;-90
2022/01/16 01:06:42;;;;;;;73.50;34.15;;;;;;;-1.92;84.57;101121.30;2078310;84;20948;-91
2022/01/16 01:09:44;;;;;;;80.17;35.03;;;;;;;-1.96;84.55;101113.25;2077222;84;21012;-89
2022/01/16 01:12:53;;;;;;;78.47;34.48;;;;;;;-1.99;84.45;101123.78;2079063;84;21560;-90
2022/01/16 01:16:02;;;;;;;74.07;33.40;;;;;;;-1.97;84.42;101140.15;2081548;84;21073;-89
2022/01/16 01:19:01;;;;;;;73.92;33.45;;;;;;;-2.00;84.43;101106.46;2127319;82;21046;-90
2022/01/16 01:22:04;;;;;;;93.12;39.90;;;;;;;-2.06;84.49;101085.45;2127393;82;21139;-90
2022/01/16 01:25:08;;;;;;;86.28;37.05;;;;;;;-2.04;84.61;101101.84;2127339;82;21057;-89
2022/01/16 01:28:11;;;;;;;81.05;35.35;;;;;;;-2.06;84.52;101094.55;2127624;82;20974;-91
2022/01/16 01:31:13;;;;;;;80.38;35.80;;;;;;;-2.10;84.39;101109.44;2127291;82;21562;-91
2022/01/16 01:34:14;;;;;;;70.32;33.42;;;;;;;-2.15;84.39;101113.98;2126054;83;21017;-90
2022/01/16 01:37:15;;;;;;;79.95;34.10;;;;;;;-2.18;84.45;101105.45;2128729;82;21013;-88
2022/01/16 01:40:24;;;;;;;77.17;33.85;;;;;;;-2.21;84.37;101106.89;2120244;82;21007;-90
2022/01/16 01:53:07;;;;;;;75.03;33.90;;;;;;;-2.37;84.22;100962.36;2124390;82;21044;-91
2022/01/16 01:56:12;;;;;;;81.97;36.85;;;;;;;-2.53;83.74;101003.75;2123964;82;21471;-91
2022/01/16 01:59:13;;;;;;;80.72;36.20;;;;;;;-2.68;83.71;101023.83;2120778;82;21005;-89
2022/01/16 02:02:15;;;;;;;85.17;35.88;;;;;;;-2.72;84.13;101042.14;2121304;82;21019;-88
2022/01/16 02:05:16;;;;;;;82.90;37.48;;;;;;;-2.73;84.25;101037.02;2125339;82;21030;-90
2022/01/16 02:08:18;;;;;;;78.70;36.98;;;;;;;-2.81;84.02;101037.77;2118297;82;21432;-90
2022/01/16 02:11:24;;;;;;;94.75;41.23;;;;;;;-2.92;83.92;101039.46;2121203;82;21032;-90
2022/01/16 02:14:34;;;;;;;87.33;41.65;;;;;;;-3.01;84.04;101052.34;2120963;82;21596;-89
2022/01/16 02:37:23;;;;;;;95.38;40.52;;;;;;;-3.30;84.52;101053.86;2119296;82;21049;-91
2022/01/16 02:40:25;;;;;;;98.33;41.05;;;;;;;-3.34;84.58;101049.23;2135276;81;21055;-91
2022/01/16 02:43:31;;;;;;;92.75;40.75;;;;;;;-3.35;84.65;101047.55;2135441;82;21008;-91
2022/01/16 02:49:34;;;;;;;97.17;39.73;;;;;;;-3.33;84.75;101043.59;2137186;82;21490;-91
2022/01/16 02:52:36;;;;;;;95.03;40.10;;;;;;;-3.31;84.80;101030.11;2134880;82;21053;-92
2022/01/16 02:55:40;;;;;;;81.80;36.83;;;;;;;-3.32;84.76;101010.23;2138534;82;21091;-92
2022/01/16 02:58:43;;;;;;;91.87;38.60;;;;;;;-3.33;84.83;101008.55;2137024;82;20986;-89
2022/01/16 03:01:45;;;;;;;86.65;37.17;;;;;;;-3.33;84.95;101005.49;2118857;82;21027;-89
2022/01/16 03:04:47;;;;;;;87.72;34.45;;;;;;;-3.37;84.88;100996.14;2138079;82;20997;-90
2022/01/16 03:07:49;;;;;;;83.72;35.38;;;;;;;-3.34;84.98;100998.63;2137875;82;20985;-90
2022/01/16 03:13:51;;;;;;;85.53;37.17;;;;;;;-3.32;84.93;100994.23;2133425;82;21115;-92
2022/01/16 03:16:53;;;;;;;75.87;35.15;;;;;;;-3.31;84.73;100991.17;2137202;82;20994;-92
2022/01/16 03:23:17;;;;;;;76.80;34.63;;;;;;;-3.30;84.76;100966.45;2134119;82;21022;-91
2022/01/16 03:26:19;;;;;;;80.67;36.20;;;;;;;-3.35;84.69;100956.72;2136148;82;21063;-89
2022/01/16 03:29:20;;;;;;;85.53;35.13;;;;;;;-3.44;84.63;100959.63;2135018;82;21008;-91
2022/01/16 03:32:22;;;;;;;81.30;34.63;;;;;;;-3.49;84.67;100933.88;2134920;82;21719;-92
2022/01/16 03:35:24;;;;;;;82.85;35.52;;;;;;;-3.50;84.68;100940.41;2141029;82;21515;-90
2022/01/16 03:38:25;;;;;;;83.50;36.58;;;;;;;-3.59;84.43;100940.75;2138549;82;21011;-91
2022/01/16 03:41:27;;;;;;;85.65;36.68;;;;;;;-3.71;84.46;100931.67;2138347;82;20965;-91
2022/01/16 03:44:30;;;;;;;71.20;34.33;;;;;;;-3.75;84.63;100925.73;2138568;82;21004;-90
2022/01/16 03:47:32;;;;;;;73.62;33.75;;;;;;;-3.72;84.84;100930.80;2136412;82;20992;-90
2022/01/16 03:50:33;;;;;;;69.05;32.67;;;;;;;-3.71;84.84;100935.11;2142379;82;21047;-92
2022/01/16 03:53:34;;;;;;;79.15;33.67;;;;;;;-3.75;84.72;100927.48;2139038;82;21469;-91
2022/01/16 03:56:36;;;;;;;75.75;33.63;;;;;;;-3.77;84.74;100925.39;2138877;82;21127;-90
2022/01/16 03:59:37;;;;;;;72.12;33.48;;;;;;;-3.77;84.76;100909.83;2137660;82;20984;-91
2022/01/16 04:02:38;;;;;;;74.97;33.80;;;;;;;-3.80;84.70;100913.83;2140037;82;21448;-92
2022/01/16 04:05:40;;;;;;;75.57;33.60;;;;;;;-3.83;84.75;100912.20;2116491;82;21510;-92
2022/01/16 04:08:41;;;;;;;70.80;36.23;;;;;;;-3.80;84.81;100913.41;2139818;82;21035;-91
2022/01/16 04:11:52;;;;;;;69.65;31.90;;;;;;;-3.86;84.68;100901.52;2137035;82;21455;-90
2022/01/16 04:17:47;;;;;;;75.92;31.02;;;;;;;-3.90;84.63;100904.26;2137424;82;20949;-90
2022/01/16 04:20:48;;;;;;;77.45;33.48;;;;;;;-3.95;84.51;100903.57;2135788;82;21118;-91
2022/01/16 04:23:52;;;;;;;79.37;33.80;;;;;;;-4.02;84.54;100893.05;2136008;82;21051;-88
2022/01/16 04:26:53;;;;;;;64.72;30.97;;;;;;;-4.09;84.42;100890.65;2136623;82;21007;-90
2022/01/16 04:29:54;;;;;;;65.20;31.97;;;;;;;-4.14;84.47;100895.59;2137377;82;21081;-91
2022/01/16 04:32:56;;;;;;;71.15;31.02;;;;;;;-4.23;84.43;100888.16;2140291;82;21027;-91
2022/01/16 04:35:57;;;;;;;68.57;32.38;;;;;;;-4.24;84.52;100891.20;2131513;82;21556;-91
2022/01/16 04:38:58;;;;;;;73.15;32.42;;;;;;;-4.25;84.53;100887.35;2135654;82;21470;-89
2022/01/16 04:45:19;;;;;;;71.35;32.00;;;;;;;-4.34;84.27;100874.27;2138799;82;20973;-90
2022/01/16 04:48:20;;;;;;;71.20;32.17;;;;;;;-4.45;84.24;100875.93;2138673;82;21639;-90
2022/01/16 04:51:24;;;;;;;77.95;35.68;;;;;;;-4.52;84.23;100875.31;2136037;82;20969;-92
2022/01/16 04:54:25;;;;;;;71.62;35.75;;;;;;;-4.60;84.25;100861.77;2137077;82;21293;-90
2022/01/16 04:57:26;;;;;;;75.28;35.52;;;;;;;-4.64;84.30;100854.17;2133114;82;21060;-90
2022/01/16 05:00:27;;;;;;;74.15;33.75;;;;;;;-4.70;84.41;100855.66;2137653;82;21459;-91
2022/01/16 05:03:30;;;;;;;69.42;31.35;;;;;;;-4.71;84.50;100848.34;2138142;82;21028;-89
2022/01/16 05:06:31;;;;;;;72.20;31.52;;;;;;;-4.73;84.56;100846.23;2137167;82;21035;-90
2022/01/16 05:09:33;;;;;;;73.33;33.42;;;;;;;-4.74;84.62;100834.20;2135168;82;21050;-90
2022/01/16 05:12:37;;;;;;;68.62;31.62;;;;;;;-4.77;84.59;100841.63;2135773;82;21011;-91
2022/01/16 05:18:57;;;;;;;74.65;33.38;;;;;;;-4.81;84.65;100822.38;2137457;82;20981;-91
2022/01/16 05:21:58;;;;;;;66.82;32.67;;;;;;;-4.85;84.63;100822.91;2133322;82;21055;-91
2022/01/16 05:24:59;;;;;;;70.03;32.33;;;;;;;-4.83;84.70;100818.53;2137063;82;21446;-89
2022/01/16 05:28:00;;;;;;;68.83;30.75;;;;;;;-4.78;84.77;100811.91;2134217;82;21545;-89
2022/01/16 05:31:02;;;;;;;62.62;31.30;;;;;;;-4.77;84.74;100795.02;2140173;82;21029;-91
2022/01/16 05:34:04;;;;;;;70.97;32.20;;;;;;;-4.78;84.62;100793.33;2139496;82;21039;-89
2022/01/16 05:37:05;;;;;;;78.47;32.75;;;;;;;-4.82;84.55;100796.91;2136236;82;21078;-91
2022/01/16 05:40:07;;;;;;;77.58;32.15;;;;;;;-4.79;84.59;100789.48;2141873;81;22141;-89
2022/01/16 05:43:08;;;;;;;70.83;30.32;;;;;;;-4.79;84.60;100788.20;2142215;81;21001;-91
2022/01/16 05:46:09;;;;;;;67.47;28.42;;;;;;;-4.77;84.62;100791.59;2145984;81;21499;-90
2022/01/16 05:49:11;;;;;;;72.12;29.77;;;;;;;-4.71;84.64;100772.41;2145500;81;20984;-90
2022/01/16 05:52:12;;;;;;;71.30;31.80;;;;;;;-4.65;84.71;100778.66;2142574;82;21015;-91
2022/01/16 05:55:14;;;;;;;69.25;31.25;;;;;;;-4.72;84.50;100766.38;2144322;82;20962;-89
2022/01/16 05:58:16;;;;;;;74.55;31.62;;;;;;;-4.66;84.51;100773.09;2142453;82;21050;-91
2022/01/16 06:01:17;;;;;;;77.67;30.52;;;;;;;-4.63;84.61;100766.50;2144982;81;21556;-90
2022/01/16 06:04:18;;;;;;;72.05;30.90;;;;;;;-4.61;84.68;100766.85;2144140;82;21035;-90
2022/01/16 06:07:19;;;;;;;65.08;29.70;;;;;;;-4.61;84.63;100762.13;2145505;81;21475;-91
2022/01/16 06:10:20;;;;;;;65.25;29.48;;;;;;;-4.66;84.69;100767.91;2142833;81;20992;-90
2022/01/16 06:13:22;;;;;;;69.75;30.02;;;;;;;-4.72;84.98;100756.48;2144277;81;21532;-90
2022/01/16 06:16:23;;;;;;;72.40;31.73;;;;;;;-4.77;85.31;100757.92;2145920;82;21031;-90
2022/01/16 06:19:24;;;;;;;75.00;30.85;;;;;;;-4.80;85.39;100754.16;2150953;81;20922;-90
2022/01/16 06:22:25;;;;;;;83.33;33.63;;;;;;;-4.81;85.57;100746.00;2143724;81;21000;-87
2022/01/16 06:25:27;;;;;;;72.03;28.92;;;;;;;-4.82;86.03;100745.13;2147689;81;21498;-89
2022/01/16 06:28:30;;;;;;;68.75;31.50;;;;;;;-4.86;86.23;100737.09;2142989;82;21041;-90
2022/01/16 06:31:31;;;;;;;77.32;30.43;;;;;;;-4.84;86.39;100736.59;2144282;81;20976;-88
2022/01/16 06:34:33;;;;;;;70.60;32.55;;;;;;;-4.78;86.53;100732.95;2144236;81;21503;-90
2022/01/16 06:37:34;;;;;;;63.65;29.02;;;;;;;-4.76;86.40;100724.23;2144722;81;21047;-88
2022/01/16 06:40:36;;;;;;;72.58;30.43;;;;;;;-4.71;86.47;100725.33;2121072;82;21032;-90
2022/01/16 06:43:37;;;;;;;74.45;31.57;;;;;;;-4.71;86.61;100724.04;2121815;82;21549;-89
2022/01/16 06:46:38;;;;;;;63.85;28.77;;;;;;;-4.69;86.53;100713.19;2123802;82;21477;-92
2022/01/16 06:49:40;;;;;;;73.17;30.92;;;;;;;-4.65;86.55;100715.20;2121336;82;20996;-89
2022/01/16 06:52:41;;;;;;;73.60;30.85;;;;;;;-4.65;86.56;100714.75;2119305;82;20988;-91
2022/01/16 06:55:42;;;;;;;72.92;31.37;;;;;;;-4.62;86.49;100710.75;2122479;82;20989;-90
2022/01/16 06:58:43;;;;;;;74.07;31.00;;;;;;;-4.60;86.54;100716.73;2121983;82;21521;-90
2022/01/16 07:01:45;;;;;;;75.75;31.85;;;;;;;-4.61;86.49;100717.64;2123112;82;21501;-91
2022/01/16 07:04:46;;;;;;;70.95;30.97;;;;;;;-4.62;86.48;100715.94;2118381;82;21582;-95
2022/01/16 07:07:48;;;;;;;71.00;30.95;;;;;;;-4.54;86.60;100707.89;2121734;83;20996;-91
2022/01/16 07:10:50;;;;;;;78.95;33.58;;;;;;;-4.51;86.55;100702.14;2110519;82;21012;-95
2022/01/16 07:13:51;;;;;;;70.37;31.02;;;;;;;-4.51;86.59;100698.25;2114632;83;21459;-91
2022/01/16 07:16:53;;;;;;;75.08;33.05;;;;;;;-4.51;86.56;100694.37;2125631;82;21035;-91
2022/01/16 07:19:55;;;;;;;68.20;30.37;;;;;;;-4.45;86.65;100696.34;2126186;82;21012;-90
2022/01/16 07:22:57;;;;;;;84.80;32.28;;;;;;;-4.42;86.62;100694.50;2116049;82;21020;-89
2022/01/16 07:25:58;;;;;;;69.82;31.57;;;;;;;-4.32;86.65;100685.46;2116823;82;20958;-91
2022/01/16 07:28:59;;;;;;;75.45;32.40;;;;;;;-4.23;86.62;100684.72;2119362;82;21487;-89
2022/01/16 07:32:00;;;;;;;74.62;32.48;;;;;;;-4.21;86.47;100692.83;2122361;82;21016;-92
2022/01/16 07:35:03;;;;;;;73.87;33.45;;;;;;;-4.15;86.45;100695.19;2123002;82;21016;-89
2022/01/16 07:38:07;;;;;;;74.12;31.97;;;;;;;-4.03;86.46;100689.97;2118348;82;21003;-91
2022/01/16 07:41:08;;;;;;;66.97;29.85;;;;;;;-3.86;86.56;100691.89;2131682;81;21052;-90
2022/01/16 07:44:10;;;;;;;71.20;32.15;;;;;;;-3.71;86.52;100688.70;2132674;81;21051;-90
2022/01/16 07:47:11;;;;;;;77.17;33.45;;;;;;;-3.53;86.48;100704.42;2132628;82;21075;-91
2022/01/16 07:50:14;;;;;;;78.45;32.98;;;;;;;-3.41;86.30;100702.61;2131308;82;21493;-92
2022/01/16 07:53:16;;;;;;;68.02;30.68;;;;;;;-3.24;86.35;100694.98;2130822;82;21040;-90
2022/01/16 07:56:20;;;;;;;66.65;30.05;;;;;;;-3.21;85.81;100684.91;2127441;82;21633;-90
2022/01/16 07:59:21;;;;;;;75.92;32.17;;;;;;;-3.05;85.95;100685.94;2130540;82;21020;-91
2022/01/16 08:02:23;;;;;;;69.22;32.63;;;;;;;-2.92;85.89;100681.06;2133552;82;20976;-90
2022/01/16 08:05:24;;;;;;;79.27;34.45;;;;;;;-2.82;85.72;100686.23;2129434;83;20957;-91
2022/01/16 08:08:25;;;;;;;71.10;30.20;;;;;;;-2.64;85.85;100691.55;2130266;81;21035;-90
2022/01/16 08:11:27;;;;;;;76.37;31.42;;;;;;;-2.42;85.79;100687.49;2134451;82;21076;-90
2022/01/16 08:14:28;;;;;;;72.90;31.35;;;;;;;-2.21;85.79;100680.48;2130186;83;21050;-91
2022/01/16 08:17:29;;;;;;;72.58;32.42;;;;;;;-2.09;85.37;100669.49;2132691;81;21042;-91
2022/01/16 08:20:30;;;;;;;76.75;32.93;;;;;;;-1.96;85.30;100660.66;2126959;82;21023;-91
2022/01/16 08:23:32;;;;;;;66.77;32.53;;;;;;;-1.62;85.64;100661.16;2132051;81;21059;-89
2022/01/16 08:26:34;;;;;;;61.18;29.87;;;;;;;-1.37;84.95;100666.83;2130961;81;21486;-91
2022/01/16 08:29:36;;;;;;;69.00;32.15;;;;;;;-1.17;84.58;100660.61;2132225;82;21003;-93
2022/01/16 08:32:43;;;;;;;76.85;32.42;;;;;;;-0.89;84.69;100654.44;2133160;82;21083;-93
2022/01/16 08:35:41;;;;;;;73.85;34.33;;;;;;;-0.64;84.54;100659.20;2126330;82;20956;-91
2022/01/16 08:38:44;;;;;;;75.70;34.35;;;;;;;-0.33;84.52;100651.86;2129554;82;20987;-93
2022/01/16 08:41:45;;;;;;;74.03;34.90;;;;;;;-0.09;84.01;100659.61;2111507;82;21060;-89
2022/01/16 08:44:47;;;;;;;71.00;34.73;;;;;;;0.08;83.74;100657.36;2132641;81;21119;-91
2022/01/16 08:47:48;;;;;;;74.12;33.55;;;;;;;0.15;82.87;100653.49;2132824;81;21094;-92
2022/01/16 08:50:49;;;;;;;78.52;33.90;;;;;;;0.26;83.12;100651.58;2141810;81;21003;-91
2022/01/16 08:53:50;;;;;;;76.55;34.48;;;;;;;0.43;82.93;100644.08;2128134;82;21118;-89
2022/01/16 08:56:51;;;;;;;70.90;32.40;;;;;;;0.46;82.28;100631.32;2132246;82;21023;-91
2022/01/16 08:59:53;;;;;;;73.83;35.80;;;;;;;0.38;81.81;100621.31;2123801;83;21475;-91
2022/01/16 09:02:54;;;;;;;71.82;31.57;;;;;;;0.41;82.17;100614.13;2127955;83;21040;-92
2022/01/16 09:05:56;;;;;;;66.22;33.75;;;;;;;0.44;81.77;100612.64;2107613;83;21012;-89
2022/01/16 09:08:57;;;;;;;66.25;32.85;;;;;;;0.49;81.92;100606.33;2130100;82;21007;-91
2022/01/16 09:12:00;;;;;;;74.85;35.17;;;;;;;0.63;81.88;100599.83;2129672;81;21086;-90
2022/01/16 09:15:02;;;;;;;74.05;34.05;;;;;;;0.63;81.27;100600.66;2134563;82;21042;-88
2022/01/16 09:18:03;;;;;;;72.60;34.15;;;;;;;0.58;81.33;100600.09;2131558;82;21478;-88
2022/01/16 09:21:05;;;;;;;76.12;35.17;;;;;;;0.47;80.72;100585.98;2127636;82;21043;-90
2022/01/16 09:24:06;;;;;;;72.40;33.60;;;;;;;0.46;81.16;100589.55;2130837;83;21039;-89
2022/01/16 09:27:07;;;;;;;75.95;35.33;;;;;;;0.62;81.45;100588.98;2134144;81;21510;-89
2022/01/16 09:30:11;;;;;;;75.22;34.78;;;;;;;0.74;81.23;100582.20;2132518;81;20975;-89
2022/01/16 09:33:15;;;;;;;73.75;34.60;;;;;;;0.82;80.77;100575.59;2131328;82;20976;-89
2022/01/16 09:36:16;;;;;;;65.78;34.53;;;;;;;0.65;80.37;100578.38;2124769;82;21103;-88
2022/01/16 09:39:17;;;;;;;85.00;35.88;;;;;;;0.69;80.86;100586.39;2129802;82;20992;-88
2022/01/16 09:42:24;;;;;;;76.67;36.50;;;;;;;0.88;81.27;100581.73;2113731;82;20969;-91
2022/01/16 09:45:26;;;;;;;80.55;38.25;;;;;;;1.20;81.16;100580.22;2133079;82;21030;-88
2022/01/16 09:48:28;;;;;;;75.80;36.20;;;;;;;1.40;80.97;100591.20;2135753;82;21019;-89
2022/01/16 09:51:31;;;;;;;73.43;35.03;;;;;;;1.45;80.66;100592.59;2134508;82;22079;-89
2022/01/16 09:54:32;;;;;;;80.03;36.95;;;;;;;1.59;80.88;100592.20;2133318;82;21537;-89
2022/01/16 09:57:34;;;;;;;82.90;37.40;;;;;;;1.72;80.07;100592.63;2137955;82;21589;-89
2022/01/16 10:00:36;;;;;;;82.90;37.53;;;;;;;1.62;79.85;100583.68;2121217;82;21438;-89
2022/01/16 10:03:42;;;;;;;76.22;37.20;;;;;;;1.62;79.92;100587.60;2135600;82;21050;-90
2022/01/16 10:06:56;;;;;;;87.10;40.23;;;;;;;1.62;79.70;100583.68;2137633;82;20978;-88
2022/01/16 10:10:12;;;;;;;88.65;39.08;;;;;;;1.62;79.72;100582.84;2135355;82;21008;-88
2022/01/16 10:13:37;;;;;;;78.28;35.83;;;;;;;1.76;80.17;100574.47;2137765;82;21266;-89
2022/01/16 10:16:40;;;;;;;80.25;38.55;;;;;;;1.93;80.19;100578.61;2129920;82;20987;-88
2022/01/16 10:19:42;;;;;;;75.25;37.80;;;;;;;1.98;79.74;100574.40;2134635;82;21549;-90
2022/01/16 10:22:47;;;;;;;83.40;37.83;;;;;;;2.02;79.57;100571.45;2137307;82;20992;-88
2022/01/16 10:25:49;;;;;;;73.20;36.35;;;;;;;2.06;79.35;100571.28;2138203;82;20990;-89
2022/01/16 10:28:52;;;;;;;83.52;39.00;;;;;;;2.10;79.04;100563.11;2133026;82;21073;-89
2022/01/16 10:31:59;;;;;;;82.82;37.25;;;;;;;2.05;78.65;100556.02;2134858;82;20976;-88
2022/01/16 10:35:20;;;;;;;75.83;36.15;;;;;;;2.06;78.96;100550.34;2137559;82;20983;-88
2022/01/16 10:38:29;;;;;;;76.35;37.58;;;;;;;2.11;78.83;100538.63;2137651;82;21056;-88
2022/01/16 10:41:30;;;;;;;80.65;37.73;;;;;;;2.08;78.36;100533.56;2140139;82;21063;-90
2022/01/16 10:44:32;;;;;;;84.32;39.60;;;;;;;2.09;79.04;100533.95;2120552;82;20951;-88
2022/01/16 10:47:43;;;;;;;78.15;37.30;;;;;;;2.19;79.09;100517.98;2142939;81;21506;-88
2022/01/16 10:50:47;;;;;;;;;;;;;;;2.15;78.58;100507.83;2150459;81;21095;-87
2022/01/16 10:53:48;;;;;;;69.17;35.38;;;;;;;2.01;78.64;100504.83;2144339;81;20169;-88
2022/01/16 10:56:50;;;;;;;73.07;35.03;;;;;;;1.92;78.93;100498.91;2148824;81;21486;-88
2022/01/16 11:00:15;;;;;;;77.65;35.20;;;;;;;1.95;79.21;100486.92;2141776;81;20964;-88
2022/01/16 11:03:17;;;;;;;81.70;36.83;;;;;;;2.12;79.45;100481.39;2141312;82;20953;-89
2022/01/16 11:06:24;;;;;;;76.87;37.23;;;;;;;2.32;79.45;100472.65;2146917;82;20984;-87
2022/01/16 11:09:30;;;;;;;75.57;37.23;;;;;;;2.43;79.35;100471.44;2143438;81;21016;-87
2022/01/16 11:12:37;;;;;;;75.97;37.08;;;;;;;2.47;79.25;100464.55;2145798;81;21000;-87
2022/01/16 11:15:41;;;;;;;83.47;37.63;;;;;;;2.62;79.33;100467.08;2144875;81;21071;-90
2022/01/16 11:18:50;;;;;;;83.40;35.83;;;;;;;2.65;78.67;100459.00;2143395;81;21475;-88
2022/01/16 11:21:55;;;;;;;73.72;36.33;;;;;;;2.62;78.84;100452.67;2144005;81;21063;-88
2022/01/16 11:25:10;;;;;;;79.25;36.50;;;;;;;2.68;78.48;100448.30;2143453;81;21075;-88
2022/01/16 11:28:12;;;;;;;77.55;37.38;;;;;;;2.73;78.73;100439.62;2144987;81;21006;-88
2022/01/16 11:31:15;;;;;;;78.25;36.70;;;;;;;2.72;78.50;100450.23;2143835;81;21470;-89
2022/01/16 11:34:16;;;;;;;80.03;38.30;;;;;;;2.63;78.55;100455.16;2145713;81;21512;-89
2022/01/16 11:37:18;;;;;;;82.92;38.90;;;;;;;2.61;78.73;100450.50;2146451;81;21000;-89
2022/01/16 11:40:42;;;;;;;74.30;36.42;;;;;;;2.60;78.70;100459.31;2144841;81;21048;-89
2022/01/16 11:43:38;;;;;;;74.47;33.85;;;;;;;2.58;78.92;100458.58;2132806;82;21098;-89
2022/01/16 11:46:48;;;;;;;74.32;38.30;;;;;;;2.57;78.66;100455.60;2127623;82;21048;-88
2022/01/16 11:49:50;;;;;;;72.47;34.73;;;;;;;2.57;78.66;100447.74;2129554;82;21031;-89
2022/01/16 11:52:51;;;;;;;71.30;35.70;;;;;;;2.59;78.56;100453.72;2130883;81;21549;-88
2022/01/16 11:55:52;;;;;;;73.50;36.15;;;;;;;2.58;78.80;100448.58;2134260;81;21399;-87
2022/01/16 11:59:29;;;;;;;71.70;34.70;;;;;;;2.69;79.25;100441.63;2132406;81;21058;-88
2022/01/16 12:02:38;;;;;;;76.62;36.05;;;;;;;2.81;79.21;100439.08;2130115;82;21020;-89
2022/01/16 12:05:39;;;;;;;73.12;35.48;;;;;;;2.86;78.71;100436.50;2133023;82;21806;-88
2022/01/16 12:08:45;;;;;;;71.77;34.78;;;;;;;2.84;78.62;100430.52;2127366;82;21035;-89
2022/01/16 12:11:43;;;;;;;72.75;35.58;;;;;;;2.83;78.76;100427.55;2132579;81;21005;-88
2022/01/16 12:15:05;;;;;;;67.03;32.08;;;;;;;2.80;78.75;100418.59;2134559;82;21031;-88
2022/01/16 12:18:08;;;;;;;63.75;30.82;;;;;;;2.77;79.07;100404.41;2135503;81;20973;-89
2022/01/16 12:21:31;;;;;;;63.78;31.42;;;;;;;2.75;79.09;100403.67;2133018;81;21008;-87
2022/01/16 12:24:39;;;;;;;65.55;31.50;;;;;;;2.78;79.20;100400.00;2127729;82;21432;-89
2022/01/16 12:27:45;;;;;;;69.87;31.68;;;;;;;2.86;78.92;100388.49;2133353;81;20998;-88
2022/01/16 12:30:59;;;;;;;62.75;31.10;;;;;;;2.90;79.34;100389.48;2130021;82;21034;-88
2022/01/16 12:34:01;;;;;;;66.05;30.80;;;;;;;3.00;79.19;100383.56;2129318;81;21054;-88
2022/01/16 12:37:03;;;;;;;61.37;30.57;;;;;;;3.05;79.17;100384.07;2128322;82;21435;-89
2022/01/16 12:40:05;;;;;;;62.80;32.03;;;;;;;3.12;79.24;100380.86;2129203;81;20998;-88
2022/01/16 12:43:10;;;;;;;68.10;32.25;;;;;;;3.19;78.89;100378.65;2130944;82;20997;-89
2022/01/16 12:46:19;;;;;;;65.97;29.95;;;;;;;3.14;78.67;100360.62;2129471;82;21044;-88
2022/01/16 12:49:25;;;;;;;57.23;28.42;;;;;;;3.18;78.54;100364.33;2131810;82;21494;-88
2022/01/16 12:52:27;;;;;;;57.20;27.67;;;;;;;3.16;78.37;100367.56;2132053;82;20983;-90
2022/01/16 12:55:34;;;;;;;61.63;29.85;;;;;;;3.22;78.76;100365.79;2133278;82;20991;-88
2022/01/16 12:58:36;;;;;;;61.02;29.45;;;;;;;3.22;78.23;100358.75;2133245;82;21005;-87
2022/01/16 13:01:49;;;;;;;59.80;29.87;;;;;;;3.19;78.23;100348.49;2136779;82;21001;-89
2022/01/16 13:04:51;;;;;;;56.33;30.52;;;;;;;3.10;78.13;100347.39;2129959;82;21047;-89
2022/01/16 13:08:00;;;;;;;63.15;31.50;;;;;;;3.06;78.31;100343.30;2129962;82;21020;-89
2022/01/16 13:11:15;;;;;;;58.25;29.15;;;;;;;3.06;78.58;100351.17;2130605;81;21004;-87
2022/01/16 13:14:25;;;;;;;59.70;27.65;;;;;;;3.13;78.73;100351.58;2134910;81;20994;-89
2022/01/16 13:17:26;;;;;;;55.73;27.27;;;;;;;3.15;78.48;100349.66;2129918;83;21662;-89
2022/01/16 13:20:28;;;;;;;66.50;30.85;;;;;;;3.18;78.51;100349.91;2133957;82;21009;-90
2022/01/16 13:23:29;;;;;;;60.90;30.85;;;;;;;3.20;78.51;100351.95;2133366;82;20934;-90
2022/01/16 13:26:36;;;;;;;70.10;33.83;;;;;;;3.27;78.70;100345.31;2132725;82;20958;-90
2022/01/16 13:29:44;;;;;;;77.42;36.15;;;;;;;3.40;78.79;100347.83;2130748;82;21030;-90
2022/01/16 13:32:45;;;;;;;;;;;;;;;3.51;78.72;100343.92;2136870;81;21516;-88
2022/01/16 13:35:46;;;;;;;68.80;32.83;;;;;;;3.53;78.43;100336.78;2131752;82;20117;-89
2022/01/16 13:38:47;;;;;;;78.40;37.38;;;;;;;3.46;78.29;100329.83;2136498;81;21530;-89
2022/01/16 13:42:12;;;;;;;59.35;31.70;;;;;;;3.40;78.13;100327.68;2139929;82;21518;-89
2022/01/16 13:45:25;;;;;;;60.03;30.88;;;;;;;3.26;77.98;100320.02;2139073;82;22577;-88
2022/01/16 13:48:30;;;;;;;66.37;31.52;;;;;;;3.12;78.09;100312.69;2141125;82;21016;-88
2022/01/16 13:51:31;;;;;;;71.80;33.18;;;;;;;3.04;78.32;100311.14;2142562;82;21016;-88
2022/01/16 13:54:33;;;;;;;63.13;29.23;;;;;;;3.04;78.28;100294.10;2139339;82;21553;-89
2022/01/16 13:57:35;;;;;;;68.17;29.75;;;;;;;3.00;78.28;100300.51;2142235;82;21027;-88
2022/01/16 14:00:37;;;;;;;53.42;27.32;;;;;;;3.05;78.42;100303.62;2140310;82;21030;-88
2022/01/16 14:03:51;;;;;;;61.28;30.23;;;;;;;3.05;78.25;100308.05;2138155;82;20980;-89
2022/01/16 14:07:01;;;;;;;64.70;31.77;;;;;;;3.02;78.15;100306.48;2141628;82;21508;-88
2022/01/16 14:10:03;;;;;;;70.32;32.48;;;;;;;3.01;78.34;100310.52;2137400;82;21040;-89
2022/01/16 14:13:04;;;;;;;63.78;31.52;;;;;;;2.99;78.97;100315.88;2141552;82;21012;-93
2022/01/16 14:16:13;;;;;;;59.95;30.40;;;;;;;3.26;80.36;100321.33;2141809;82;21039;-88
2022/01/16 14:19:25;;;;;;;59.35;27.73;;;;;;;3.45;79.87;100310.30;2141587;82;20995;-87
2022/01/16 14:22:26;;;;;;;66.47;28.62;;;;;;;3.51;78.64;100303.27;2139450;82;20992;-89
2022/01/16 14:25:28;;;;;;;93.70;40.20;;;;;;;3.43;78.19;100307.77;2138826;82;21034;-90
2022/01/16 14:28:36;;;;;;;121.05;50.45;;;;;;;3.34;78.08;100309.78;2139931;82;21517;-89
2022/01/16 14:31:37;;;;;;;85.75;39.10;;;;;;;3.24;77.99;100313.59;2136718;82;21070;-90
2022/01/16 14:34:40;;;;;;;92.88;45.45;;;;;;;3.11;77.92;100315.45;2140747;82;20977;-88
2022/01/16 14:37:42;;;;;;;89.37;41.65;;;;;;;2.99;78.02;100319.81;2143033;82;21062;-87
2022/01/16 14:40:44;;;;;;;84.87;41.45;;;;;;;2.91;78.13;100320.38;2140034;82;21109;-87
2022/01/16 14:43:54;;;;;;;84.28;40.12;;;;;;;2.85;78.16;100320.00;2117131;82;21000;-87
2022/01/16 14:46:56;;;;;;;73.90;36.88;;;;;;;2.78;78.21;100320.06;2121005;82;21008;-87
2022/01/16 14:49:57;;;;;;;73.07;35.85;;;;;;;2.69;78.16;100326.34;2117750;82;21110;-87
2022/01/16 14:52:58;;;;;;;67.35;32.50;;;;;;;2.59;78.21;100329.28;2121517;82;21471;-86